• Join FlightAware (Why Join?)
  • Login
  • US Flag GB Flag 
10:16 EDT


 

Airport Tracker/Info


-or-


 

Live Flight TrackerFlight Track Log ✈ CTL13 ✈ 10-May-2013 ✈ KMDW - KGRR

Flight Track Log - Related Links

Times and Time Zones

All times are in EDT time to prevent confusion due to time zone crossing. See the CTL13 flight status page for this flight to view local times or setup timezone preferences in your user account.

Time Position Orientation Groundspeed Altitude Reporting Facility
EDT Latitude Longitude Course Direction KTS MPH feet Rate Location/Type
23:14 41.8000 -87.6833 93° East 119 137 2,700  Level Chicago TRACON
23:16 41.8000 -87.6333 90° East 122 140 4,000 1,080 Climbing Chicago TRACON
23:16 41.8000 -87.6000 90° East 127 146 4,800 840 Climbing Chicago TRACON
23:17 41.8053 -87.5900 55° Northeast 122 140 5,000 60 Climbing Chicago Center
23:18 41.8261 -87.5408 60° Northeast 138 159 4,900 -60 Descending Chicago Center
23:19 41.8536 -87.4908 54° Northeast 155 178 4,900  Level Chicago Center
23:20 41.7803 -87.4025 93° East  Level FlightAware Approximate
23:20 41.8803 -87.4419 54° Northeast 161 185 4,900  Level Chicago Center
23:21 41.9064 -87.3933 54° Northeast 161 185 5,300 540 Climbing Chicago Center
23:22 41.9283 -87.3492 56° Northeast 144 166 6,000 780 Climbing Chicago Center
23:23 41.9525 -87.3075 52° Northeast 141 162 6,900 480 Climbing Chicago Center
23:24 41.9825 -87.2531 53° Northeast 154 177 7,000  Climbing Chicago Center
23:25 42.0075 -87.2028 56° Northeast 163 188 7,000  Level Chicago Center
23:26 42.0369 -87.1592 48° Northeast 159 183 7,000  Level Chicago Center
23:27 42.0617 -87.1108 55° Northeast 157 181 7,000 -60 Level Chicago Center
23:28 42.0850 -87.0633 56° Northeast 154 177 6,900 -60 Descending Chicago Center
23:29 42.1083 -87.0211 53° Northeast 151 174 6,900  Level Chicago Center
23:30 42.1308 -86.9736 57° Northeast 151 174 6,900  Level Chicago Center
23:31 42.1539 -86.9267 56° Northeast 151 174 7,000  Climbing Chicago Center
23:32 42.1775 -86.8797 56° Northeast 151 174 7,000  Level Chicago Center
23:33 42.2056 -86.8228 56° Northeast 152 175 7,000  Level Chicago Center
23:34 42.2283 -86.7739 58° Northeast 153 176 7,000  Level Chicago Center
23:35 42.2519 -86.7253 57° Northeast 156 180 7,000  Level Chicago Center
23:36 42.2758 -86.6778 56° Northeast 153 176 7,000  Level Chicago Center
23:37 42.3000 -86.6314 55° Northeast 152 175 7,000  Level Chicago Center
23:38 42.3222 -86.5867 56° Northeast 152 175 7,000  Level Chicago Center
23:39 42.3464 -86.5394 55° Northeast 153 176 7,000  Level Chicago Center
23:40 42.3711 -86.4928 54° Northeast 152 175 7,000  Level Chicago Center
23:41 42.3956 -86.4472 54° Northeast 151 174 7,000  Level Chicago Center
23:42 42.4214 -86.4031 52° Northeast 150 173 7,000  Level Chicago Center
23:43 42.4494 -86.3486 55° Northeast 149 171 7,000  Level Chicago Center
23:44 42.4764 -86.3069 49° Northeast 148 170 7,000  Level Chicago Center
23:45 42.5006 -86.2622 54° Northeast 148 170 7,000  Level Chicago Center
23:46 42.5233 -86.2147 57° Northeast 150 173 7,000  Level Chicago Center
23:47 42.5531 -86.1758 44° Northeast 149 171 7,000  Level Chicago Center
23:48 42.5842 -86.1400 40° Northeast 149 171 7,000 -240 Level Chicago Center
23:49 42.6153 -86.1014 42° Northeast 150 173 6,600 -420 Descending Chicago Center
23:50 42.6481 -86.0617 42° Northeast 157 181 6,200 -540 Descending Chicago Center
23:51 42.6814 -86.0219 41° Northeast 159 183 5,600 -720 Descending Chicago Center
23:52 42.7142 -85.9794 44° Northeast 161 185 4,800 -780 Descending Chicago Center
23:53 42.7469 -85.9375 43° Northeast 164 189 4,100 -780 Descending Chicago Center
23:54 42.7800 -85.8989 41° Northeast 159 183 3,300 -600 Descending Chicago Center
23:55 42.8125 -85.8594 42° Northeast 158 182 3,000 -240 Descending Chicago Center
23:56 42.8431 -85.8106 50° Northeast 150 173 2,900 -300 Descending Chicago Center
23:57 42.8519 -85.7539 78° East 152 175 2,400 -300 Descending Chicago Center
23:58 42.8583 -85.7003 81° East 149 171 2,400  Level Chicago Center
23:59 42.8642 -85.6503 81° East 142 163 2,400  Level Chicago Center
00:01 42.8549 -85.5845 101° East  Level FlightAware Approximate
00:08 42.8667 -85.5167 56° Northeast  Level FlightAware Approximate
00:09 42.8808 -85.5228 56° Northeast  Level Estimated
00:10 42.8808 -85.5228 56° Northeast  Level Estimated